sensor_id;sensor_type;location;lat;lon;timestamp;temperature;humidity
74617;DHT22;63123;50.906;4.198;2023-06-22T00:01:03;20.90;70.80
74617;DHT22;63123;50.906;4.198;2023-06-22T00:03:28;20.90;70.80
74617;DHT22;63123;50.906;4.198;2023-06-22T00:05:54;20.90;70.80
74617;DHT22;63123;50.906;4.198;2023-06-22T00:08:19;20.90;70.80
74617;DHT22;63123;50.906;4.198;2023-06-22T00:10:46;20.90;70.80
74617;DHT22;63123;50.906;4.198;2023-06-22T00:13:12;20.90;70.80
74617;DHT22;63123;50.906;4.198;2023-06-22T00:15:40;20.90;70.80
74617;DHT22;63123;50.906;4.198;2023-06-22T00:18:07;20.90;70.80
74617;DHT22;63123;50.906;4.198;2023-06-22T00:20:33;20.90;70.80
74617;DHT22;63123;50.906;4.198;2023-06-22T00:23:04;20.90;70.80
74617;DHT22;63123;50.906;4.198;2023-06-22T00:25:37;20.90;70.80
74617;DHT22;63123;50.906;4.198;2023-06-22T00:28:03;20.90;70.80
74617;DHT22;63123;50.906;4.198;2023-06-22T00:30:30;20.90;70.80
74617;DHT22;63123;50.906;4.198;2023-06-22T00:32:56;20.90;70.90
74617;DHT22;63123;50.906;4.198;2023-06-22T00:35:22;20.90;70.80
74617;DHT22;63123;50.906;4.198;2023-06-22T00:37:47;20.90;70.80
74617;DHT22;63123;50.906;4.198;2023-06-22T00:40:13;20.90;70.80
74617;DHT22;63123;50.906;4.198;2023-06-22T00:42:40;20.90;70.80
74617;DHT22;63123;50.906;4.198;2023-06-22T00:45:07;20.90;70.80
74617;DHT22;63123;50.906;4.198;2023-06-22T00:47:36;20.90;70.80
74617;DHT22;63123;50.906;4.198;2023-06-22T00:50:04;20.90;70.90
74617;DHT22;63123;50.906;4.198;2023-06-22T00:52:32;20.90;70.90
74617;DHT22;63123;50.906;4.198;2023-06-22T00:55:02;20.90;70.80
74617;DHT22;63123;50.906;4.198;2023-06-22T00:57:28;20.90;70.80
74617;DHT22;63123;50.906;4.198;2023-06-22T00:59:55;20.90;70.80
74617;DHT22;63123;50.906;4.198;2023-06-22T01:02:21;20.90;70.80
74617;DHT22;63123;50.906;4.198;2023-06-22T01:04:46;20.90;70.80
74617;DHT22;63123;50.906;4.198;2023-06-22T01:07:31;20.90;70.80
74617;DHT22;63123;50.906;4.198;2023-06-22T01:10:43;20.90;70.80
74617;DHT22;63123;50.906;4.198;2023-06-22T01:12:52;20.90;70.90
74617;DHT22;63123;50.906;4.198;2023-06-22T01:15:27;20.90;70.90
74617;DHT22;63123;50.906;4.198;2023-06-22T01:17:57;20.90;70.80
74617;DHT22;63123;50.906;4.198;2023-06-22T01:20:25;20.90;70.90
74617;DHT22;63123;50.906;4.198;2023-06-22T01:22:59;20.90;70.90
74617;DHT22;63123;50.906;4.198;2023-06-22T01:25:33;20.90;70.90
74617;DHT22;63123;50.906;4.198;2023-06-22T01:30:46;20.90;70.90
74617;DHT22;63123;50.906;4.198;2023-06-22T01:33:13;20.90;70.90
74617;DHT22;63123;50.906;4.198;2023-06-22T01:35:40;20.90;70.90
74617;DHT22;63123;50.906;4.198;2023-06-22T01:38:06;20.90;70.90
74617;DHT22;63123;50.906;4.198;2023-06-22T01:40:34;20.90;70.90
74617;DHT22;63123;50.906;4.198;2023-06-22T01:43:00;20.90;70.90
74617;DHT22;63123;50.906;4.198;2023-06-22T01:45:27;20.90;70.90
74617;DHT22;63123;50.906;4.198;2023-06-22T01:47:53;20.90;70.90
74617;DHT22;63123;50.906;4.198;2023-06-22T01:50:19;20.90;70.90
74617;DHT22;63123;50.906;4.198;2023-06-22T01:52:45;20.90;70.90
74617;DHT22;63123;50.906;4.198;2023-06-22T01:55:11;20.90;70.90
74617;DHT22;63123;50.906;4.198;2023-06-22T01:57:36;20.90;70.90
74617;DHT22;63123;50.906;4.198;2023-06-22T02:00:12;20.90;70.90
74617;DHT22;63123;50.906;4.198;2023-06-22T02:02:39;20.90;70.90
74617;DHT22;63123;50.906;4.198;2023-06-22T02:05:08;20.90;70.80
74617;DHT22;63123;50.906;4.198;2023-06-22T02:08:00;20.90;70.90
74617;DHT22;63123;50.906;4.198;2023-06-22T02:10:27;20.90;70.80
74617;DHT22;63123;50.906;4.198;2023-06-22T02:12:54;20.90;70.90
74617;DHT22;63123;50.906;4.198;2023-06-22T02:15:21;20.90;70.80
74617;DHT22;63123;50.906;4.198;2023-06-22T02:17:48;20.90;70.80
74617;DHT22;63123;50.906;4.198;2023-06-22T02:20:14;20.90;70.90
74617;DHT22;63123;50.906;4.198;2023-06-22T02:22:40;20.90;70.90
74617;DHT22;63123;50.906;4.198;2023-06-22T02:25:06;20.90;70.80
74617;DHT22;63123;50.906;4.198;2023-06-22T02:27:32;20.90;70.90
74617;DHT22;63123;50.906;4.198;2023-06-22T02:29:57;20.90;70.90
74617;DHT22;63123;50.906;4.198;2023-06-22T02:32:23;20.90;70.90
74617;DHT22;63123;50.906;4.198;2023-06-22T02:34:49;20.90;70.80
74617;DHT22;63123;50.906;4.198;2023-06-22T02:37:14;20.90;70.80
74617;DHT22;63123;50.906;4.198;2023-06-22T02:39:40;20.90;70.80
74617;DHT22;63123;50.906;4.198;2023-06-22T02:42:06;20.90;71.40
74617;DHT22;63123;50.906;4.198;2023-06-22T02:44:32;20.90;70.80
74617;DHT22;63123;50.906;4.198;2023-06-22T02:46:57;20.90;70.80
74617;DHT22;63123;50.906;4.198;2023-06-22T02:49:23;20.90;70.80
74617;DHT22;63123;50.906;4.198;2023-06-22T02:51:49;20.90;70.80
74617;DHT22;63123;50.906;4.198;2023-06-22T02:54:15;20.90;70.80
74617;DHT22;63123;50.906;4.198;2023-06-22T02:56:42;20.90;70.80
74617;DHT22;63123;50.906;4.198;2023-06-22T02:59:09;20.90;70.80
74617;DHT22;63123;50.906;4.198;2023-06-22T03:01:36;20.90;70.80
74617;DHT22;63123;50.906;4.198;2023-06-22T03:04:08;20.90;70.80
74617;DHT22;63123;50.906;4.198;2023-06-22T03:06:34;20.90;70.80
74617;DHT22;63123;50.906;4.198;2023-06-22T03:09:02;20.90;70.80
74617;DHT22;63123;50.906;4.198;2023-06-22T03:11:29;20.90;70.90
74617;DHT22;63123;50.906;4.198;2023-06-22T03:13:56;20.80;70.80
74617;DHT22;63123;50.906;4.198;2023-06-22T03:16:21;20.90;70.80
74617;DHT22;63123;50.906;4.198;2023-06-22T03:18:47;20.90;70.80
74617;DHT22;63123;50.906;4.198;2023-06-22T03:21:13;20.90;70.80
74617;DHT22;63123;50.906;4.198;2023-06-22T03:23:41;20.90;70.80
74617;DHT22;63123;50.906;4.198;2023-06-22T03:26:07;20.90;70.80
74617;DHT22;63123;50.906;4.198;2023-06-22T03:28:32;20.90;70.80
74617;DHT22;63123;50.906;4.198;2023-06-22T03:30:58;20.90;70.80
74617;DHT22;63123;50.906;4.198;2023-06-22T03:33:24;20.90;70.80
74617;DHT22;63123;50.906;4.198;2023-06-22T03:35:49;20.90;70.80
74617;DHT22;63123;50.906;4.198;2023-06-22T03:38:16;20.90;70.80
74617;DHT22;63123;50.906;4.198;2023-06-22T03:40:42;20.90;70.80
74617;DHT22;63123;50.906;4.198;2023-06-22T03:43:07;20.90;70.80
74617;DHT22;63123;50.906;4.198;2023-06-22T03:45:33;20.90;70.80
74617;DHT22;63123;50.906;4.198;2023-06-22T03:48:00;20.90;70.80
74617;DHT22;63123;50.906;4.198;2023-06-22T03:50:25;20.90;70.80
74617;DHT22;63123;50.906;4.198;2023-06-22T03:52:51;20.90;70.80
74617;DHT22;63123;50.906;4.198;2023-06-22T03:55:19;20.90;70.80
74617;DHT22;63123;50.906;4.198;2023-06-22T03:57:45;20.90;70.80
74617;DHT22;63123;50.906;4.198;2023-06-22T04:00:11;20.90;70.80
74617;DHT22;63123;50.906;4.198;2023-06-22T04:02:37;20.90;70.80
74617;DHT22;63123;50.906;4.198;2023-06-22T04:05:02;20.90;70.80
74617;DHT22;63123;50.906;4.198;2023-06-22T04:07:28;20.90;70.80
74617;DHT22;63123;50.906;4.198;2023-06-22T04:09:54;20.90;70.80
74617;DHT22;63123;50.906;4.198;2023-06-22T04:12:19;20.90;70.80
74617;DHT22;63123;50.906;4.198;2023-06-22T04:14:45;20.90;70.70
74617;DHT22;63123;50.906;4.198;2023-06-22T04:17:10;20.90;70.80
74617;DHT22;63123;50.906;4.198;2023-06-22T04:19:40;20.90;70.80
74617;DHT22;63123;50.906;4.198;2023-06-22T04:22:06;20.90;70.80
74617;DHT22;63123;50.906;4.198;2023-06-22T04:24:33;20.90;70.80
74617;DHT22;63123;50.906;4.198;2023-06-22T04:26:58;20.90;70.70
74617;DHT22;63123;50.906;4.198;2023-06-22T04:29:29;20.90;70.70
74617;DHT22;63123;50.906;4.198;2023-06-22T04:31:56;20.90;70.70
74617;DHT22;63123;50.906;4.198;2023-06-22T04:34:24;20.90;70.70
74617;DHT22;63123;50.906;4.198;2023-06-22T04:36:52;20.90;70.70
74617;DHT22;63123;50.906;4.198;2023-06-22T04:39:18;20.90;70.70
74617;DHT22;63123;50.906;4.198;2023-06-22T04:41:44;20.90;70.70
74617;DHT22;63123;50.906;4.198;2023-06-22T04:46:36;20.90;70.70
74617;DHT22;63123;50.906;4.198;2023-06-22T04:49:07;20.90;70.80
74617;DHT22;63123;50.906;4.198;2023-06-22T04:51:40;20.90;70.70
74617;DHT22;63123;50.906;4.198;2023-06-22T04:54:06;20.90;70.70
74617;DHT22;63123;50.906;4.198;2023-06-22T04:56:33;20.90;70.80
74617;DHT22;63123;50.906;4.198;2023-06-22T04:58:59;20.90;70.80
74617;DHT22;63123;50.906;4.198;2023-06-22T05:01:25;20.90;70.70
74617;DHT22;63123;50.906;4.198;2023-06-22T05:03:51;20.90;70.80
74617;DHT22;63123;50.906;4.198;2023-06-22T05:06:24;20.90;70.80
74617;DHT22;63123;50.906;4.198;2023-06-22T05:08:55;20.90;70.80
74617;DHT22;63123;50.906;4.198;2023-06-22T05:11:27;20.90;70.80
74617;DHT22;63123;50.906;4.198;2023-06-22T05:13:54;20.90;70.80
74617;DHT22;63123;50.906;4.198;2023-06-22T05:16:20;20.90;70.80
74617;DHT22;63123;50.906;4.198;2023-06-22T05:18:53;20.90;70.80
74617;DHT22;63123;50.906;4.198;2023-06-22T05:21:24;20.90;70.80
74617;DHT22;63123;50.906;4.198;2023-06-22T05:23:51;20.90;70.80
74617;DHT22;63123;50.906;4.198;2023-06-22T05:26:18;20.90;70.80
74617;DHT22;63123;50.906;4.198;2023-06-22T05:28:44;20.90;70.80
74617;DHT22;63123;50.906;4.198;2023-06-22T05:31:14;20.90;70.80
74617;DHT22;63123;50.906;4.198;2023-06-22T05:33:41;20.90;70.80
74617;DHT22;63123;50.906;4.198;2023-06-22T05:36:07;20.90;70.80
74617;DHT22;63123;50.906;4.198;2023-06-22T05:38:32;20.90;70.80
74617;DHT22;63123;50.906;4.198;2023-06-22T05:40:58;20.90;70.80
74617;DHT22;63123;50.906;4.198;2023-06-22T05:43:24;20.90;70.80
74617;DHT22;63123;50.906;4.198;2023-06-22T05:45:49;20.90;70.80
74617;DHT22;63123;50.906;4.198;2023-06-22T05:48:15;20.90;70.80
74617;DHT22;63123;50.906;4.198;2023-06-22T05:50:40;20.90;70.80
74617;DHT22;63123;50.906;4.198;2023-06-22T05:53:06;20.90;70.80
74617;DHT22;63123;50.906;4.198;2023-06-22T05:55:32;20.90;70.80
74617;DHT22;63123;50.906;4.198;2023-06-22T05:57:58;20.90;70.80
74617;DHT22;63123;50.906;4.198;2023-06-22T06:00:24;20.80;70.70
74617;DHT22;63123;50.906;4.198;2023-06-22T06:02:50;20.80;70.80
74617;DHT22;63123;50.906;4.198;2023-06-22T06:05:15;20.90;70.80
74617;DHT22;63123;50.906;4.198;2023-06-22T06:07:45;20.90;70.80
74617;DHT22;63123;50.906;4.198;2023-06-22T06:10:11;20.90;70.80
74617;DHT22;63123;50.906;4.198;2023-06-22T06:12:37;20.90;70.80
74617;DHT22;63123;50.906;4.198;2023-06-22T06:15:03;20.80;71.40
74617;DHT22;63123;50.906;4.198;2023-06-22T06:17:29;20.90;70.80
74617;DHT22;63123;50.906;4.198;2023-06-22T06:19:55;20.90;70.80
74617;DHT22;63123;50.906;4.198;2023-06-22T06:22:20;20.90;70.90
74617;DHT22;63123;50.906;4.198;2023-06-22T06:24:48;20.90;70.80
74617;DHT22;63123;50.906;4.198;2023-06-22T06:27:14;20.90;70.90
74617;DHT22;63123;50.906;4.198;2023-06-22T06:29:40;20.90;70.90
74617;DHT22;63123;50.906;4.198;2023-06-22T06:32:06;20.80;70.80
74617;DHT22;63123;50.906;4.198;2023-06-22T06:34:31;20.90;70.80
74617;DHT22;63123;50.906;4.198;2023-06-22T06:36:57;20.90;70.90
74617;DHT22;63123;50.906;4.198;2023-06-22T06:39:22;20.90;71.50
74617;DHT22;63123;50.906;4.198;2023-06-22T06:41:48;20.90;70.90
74617;DHT22;63123;50.906;4.198;2023-06-22T06:44:14;20.90;70.90
74617;DHT22;63123;50.906;4.198;2023-06-22T06:46:39;20.90;70.90
74617;DHT22;63123;50.906;4.198;2023-06-22T06:49:05;20.90;70.90
74617;DHT22;63123;50.906;4.198;2023-06-22T06:51:31;20.90;70.90
74617;DHT22;63123;50.906;4.198;2023-06-22T06:53:56;20.90;70.90
74617;DHT22;63123;50.906;4.198;2023-06-22T06:56:22;20.90;70.90
74617;DHT22;63123;50.906;4.198;2023-06-22T06:58:50;20.80;70.90
74617;DHT22;63123;50.906;4.198;2023-06-22T07:01:16;20.90;71.00
74617;DHT22;63123;50.906;4.198;2023-06-22T07:03:42;20.90;70.90
74617;DHT22;63123;50.906;4.198;2023-06-22T07:06:08;20.90;71.00
74617;DHT22;63123;50.906;4.198;2023-06-22T07:08:34;20.90;70.90
74617;DHT22;63123;50.906;4.198;2023-06-22T07:11:01;20.90;71.00
74617;DHT22;63123;50.906;4.198;2023-06-22T07:13:27;20.90;71.00
74617;DHT22;63123;50.906;4.198;2023-06-22T07:15:53;20.90;70.90
74617;DHT22;63123;50.906;4.198;2023-06-22T07:18:18;20.90;71.00
74617;DHT22;63123;50.906;4.198;2023-06-22T07:20:44;20.90;71.00
74617;DHT22;63123;50.906;4.198;2023-06-22T07:23:10;20.90;71.00
74617;DHT22;63123;50.906;4.198;2023-06-22T07:25:35;20.90;71.00
74617;DHT22;63123;50.906;4.198;2023-06-22T07:28:02;20.90;71.00
74617;DHT22;63123;50.906;4.198;2023-06-22T07:30:28;20.90;71.00
74617;DHT22;63123;50.906;4.198;2023-06-22T07:32:54;20.90;71.00
74617;DHT22;63123;50.906;4.198;2023-06-22T07:35:20;20.90;71.00
74617;DHT22;63123;50.906;4.198;2023-06-22T07:37:45;20.90;71.10
74617;DHT22;63123;50.906;4.198;2023-06-22T07:40:12;20.90;71.10
74617;DHT22;63123;50.906;4.198;2023-06-22T07:42:37;20.90;71.10
74617;DHT22;63123;50.906;4.198;2023-06-22T07:45:04;20.90;71.10
74617;DHT22;63123;50.906;4.198;2023-06-22T07:47:30;20.90;71.10
74617;DHT22;63123;50.906;4.198;2023-06-22T07:49:58;20.90;71.20
74617;DHT22;63123;50.906;4.198;2023-06-22T07:52:27;20.90;71.20
74617;DHT22;63123;50.906;4.198;2023-06-22T07:54:53;20.90;71.20
74617;DHT22;63123;50.906;4.198;2023-06-22T07:57:20;20.90;71.20
74617;DHT22;63123;50.906;4.198;2023-06-22T07:59:45;20.90;71.20
74617;DHT22;63123;50.906;4.198;2023-06-22T08:02:11;20.90;71.20
74617;DHT22;63123;50.906;4.198;2023-06-22T08:04:37;20.90;71.30
74617;DHT22;63123;50.906;4.198;2023-06-22T08:07:03;20.90;71.30
74617;DHT22;63123;50.906;4.198;2023-06-22T08:09:30;20.90;71.30
74617;DHT22;63123;50.906;4.198;2023-06-22T08:11:56;20.90;71.30
74617;DHT22;63123;50.906;4.198;2023-06-22T08:14:22;20.90;71.30
74617;DHT22;63123;50.906;4.198;2023-06-22T08:16:48;20.90;71.30
74617;DHT22;63123;50.906;4.198;2023-06-22T08:19:14;20.90;71.40
74617;DHT22;63123;50.906;4.198;2023-06-22T08:21:39;20.90;71.40
74617;DHT22;63123;50.906;4.198;2023-06-22T08:24:05;20.90;71.30
74617;DHT22;63123;50.906;4.198;2023-06-22T08:26:32;20.90;71.30
74617;DHT22;63123;50.906;4.198;2023-06-22T08:29:01;20.90;71.30
74617;DHT22;63123;50.906;4.198;2023-06-22T08:31:27;20.90;71.30
74617;DHT22;63123;50.906;4.198;2023-06-22T08:33:53;20.90;71.30
74617;DHT22;63123;50.906;4.198;2023-06-22T08:36:18;20.90;71.30
74617;DHT22;63123;50.906;4.198;2023-06-22T08:38:44;20.90;71.30
74617;DHT22;63123;50.906;4.198;2023-06-22T08:41:10;20.90;71.30
74617;DHT22;63123;50.906;4.198;2023-06-22T08:43:36;20.90;71.30
74617;DHT22;63123;50.906;4.198;2023-06-22T08:46:02;20.90;71.90
74617;DHT22;63123;50.906;4.198;2023-06-22T08:48:28;20.90;71.40
74617;DHT22;63123;50.906;4.198;2023-06-22T08:50:54;20.90;71.30
74617;DHT22;63123;50.906;4.198;2023-06-22T08:53:19;20.90;71.30
74617;DHT22;63123;50.906;4.198;2023-06-22T08:55:45;20.90;71.40
74617;DHT22;63123;50.906;4.198;2023-06-22T08:58:11;20.90;71.40
74617;DHT22;63123;50.906;4.198;2023-06-22T09:00:36;20.90;71.40
74617;DHT22;63123;50.906;4.198;2023-06-22T09:03:02;20.90;71.40
74617;DHT22;63123;50.906;4.198;2023-06-22T09:05:28;20.90;71.40
74617;DHT22;63123;50.906;4.198;2023-06-22T09:07:56;20.90;71.40
74617;DHT22;63123;50.906;4.198;2023-06-22T09:10:22;20.90;71.40
74617;DHT22;63123;50.906;4.198;2023-06-22T09:12:47;20.90;71.40
74617;DHT22;63123;50.906;4.198;2023-06-22T09:15:13;20.90;71.40
74617;DHT22;63123;50.906;4.198;2023-06-22T09:17:40;20.90;71.40
74617;DHT22;63123;50.906;4.198;2023-06-22T09:20:06;20.90;71.40
74617;DHT22;63123;50.906;4.198;2023-06-22T09:22:33;20.90;71.40
74617;DHT22;63123;50.906;4.198;2023-06-22T09:24:59;20.90;71.40
74617;DHT22;63123;50.906;4.198;2023-06-22T09:27:25;20.90;71.50
74617;DHT22;63123;50.906;4.198;2023-06-22T09:29:51;20.90;71.40
74617;DHT22;63123;50.906;4.198;2023-06-22T09:32:16;20.90;71.50
74617;DHT22;63123;50.906;4.198;2023-06-22T09:34:42;20.90;71.50
74617;DHT22;63123;50.906;4.198;2023-06-22T09:37:07;20.90;71.50
74617;DHT22;63123;50.906;4.198;2023-06-22T09:39:33;20.90;71.60
74617;DHT22;63123;50.906;4.198;2023-06-22T09:41:59;20.90;71.60
74617;DHT22;63123;50.906;4.198;2023-06-22T09:44:28;20.90;71.60
74617;DHT22;63123;50.906;4.198;2023-06-22T09:46:53;20.90;71.60
74617;DHT22;63123;50.906;4.198;2023-06-22T09:49:19;20.90;71.60
74617;DHT22;63123;50.906;4.198;2023-06-22T09:51:44;20.90;71.70
74617;DHT22;63123;50.906;4.198;2023-06-22T09:54:10;20.90;71.70
74617;DHT22;63123;50.906;4.198;2023-06-22T09:56:36;20.90;72.30
74617;DHT22;63123;50.906;4.198;2023-06-22T09:59:03;20.90;71.80
74617;DHT22;63123;50.906;4.198;2023-06-22T10:01:28;20.90;71.80
74617;DHT22;63123;50.906;4.198;2023-06-22T10:03:56;20.90;71.90
74617;DHT22;63123;50.906;4.198;2023-06-22T10:06:22;20.90;71.90
74617;DHT22;63123;50.906;4.198;2023-06-22T10:08:48;20.90;71.80
74617;DHT22;63123;50.906;4.198;2023-06-22T10:11:15;20.90;71.90
74617;DHT22;63123;50.906;4.198;2023-06-22T10:13:40;20.90;71.90
74617;DHT22;63123;50.906;4.198;2023-06-22T10:16:06;20.90;71.90
74617;DHT22;63123;50.906;4.198;2023-06-22T10:18:32;20.90;71.90
74617;DHT22;63123;50.906;4.198;2023-06-22T10:20:58;20.90;72.00
74617;DHT22;63123;50.906;4.198;2023-06-22T10:23:23;20.90;72.00
74617;DHT22;63123;50.906;4.198;2023-06-22T10:25:49;20.90;72.00
74617;DHT22;63123;50.906;4.198;2023-06-22T10:28:15;20.90;72.00
74617;DHT22;63123;50.906;4.198;2023-06-22T10:30:41;20.90;71.90
74617;DHT22;63123;50.906;4.198;2023-06-22T10:33:07;20.90;72.00
74617;DHT22;63123;50.906;4.198;2023-06-22T10:35:34;20.90;71.90
74617;DHT22;63123;50.906;4.198;2023-06-22T10:37:59;20.90;71.90
74617;DHT22;63123;50.906;4.198;2023-06-22T10:40:25;20.90;72.50
74617;DHT22;63123;50.906;4.198;2023-06-22T10:42:51;20.90;72.00
74617;DHT22;63123;50.906;4.198;2023-06-22T10:45:16;20.90;72.00
74617;DHT22;63123;50.906;4.198;2023-06-22T10:47:42;20.90;72.00
74617;DHT22;63123;50.906;4.198;2023-06-22T10:50:08;20.90;72.00
74617;DHT22;63123;50.906;4.198;2023-06-22T10:52:33;20.90;71.90
74617;DHT22;63123;50.906;4.198;2023-06-22T10:54:59;20.90;72.00
74617;DHT22;63123;50.906;4.198;2023-06-22T10:57:25;20.90;72.00
74617;DHT22;63123;50.906;4.198;2023-06-22T10:59:51;20.90;71.90
74617;DHT22;63123;50.906;4.198;2023-06-22T11:02:17;20.90;71.90
74617;DHT22;63123;50.906;4.198;2023-06-22T11:04:42;20.90;72.00
74617;DHT22;63123;50.906;4.198;2023-06-22T11:07:09;20.90;72.00
74617;DHT22;63123;50.906;4.198;2023-06-22T11:09:35;20.90;71.90
74617;DHT22;63123;50.906;4.198;2023-06-22T11:12:00;20.90;72.00
74617;DHT22;63123;50.906;4.198;2023-06-22T11:14:26;20.90;72.00
74617;DHT22;63123;50.906;4.198;2023-06-22T11:16:52;20.90;72.00
74617;DHT22;63123;50.906;4.198;2023-06-22T11:19:18;20.90;72.00
74617;DHT22;63123;50.906;4.198;2023-06-22T11:21:44;20.90;72.00
74617;DHT22;63123;50.906;4.198;2023-06-22T11:24:09;20.90;72.00
74617;DHT22;63123;50.906;4.198;2023-06-22T11:26:35;20.90;72.00
74617;DHT22;63123;50.906;4.198;2023-06-22T11:29:01;20.90;72.10
74617;DHT22;63123;50.906;4.198;2023-06-22T11:31:31;20.90;72.10
74617;DHT22;63123;50.906;4.198;2023-06-22T11:33:57;20.90;72.10
74617;DHT22;63123;50.906;4.198;2023-06-22T11:36:22;20.90;72.10
74617;DHT22;63123;50.906;4.198;2023-06-22T11:38:48;20.90;72.20
74617;DHT22;63123;50.906;4.198;2023-06-22T11:41:14;20.90;72.10
74617;DHT22;63123;50.906;4.198;2023-06-22T11:43:39;20.90;72.20
74617;DHT22;63123;50.906;4.198;2023-06-22T11:46:05;20.90;72.20
74617;DHT22;63123;50.906;4.198;2023-06-22T11:48:31;20.90;72.20
74617;DHT22;63123;50.906;4.198;2023-06-22T11:50:57;20.90;72.20
74617;DHT22;63123;50.906;4.198;2023-06-22T11:53:24;20.90;72.20
74617;DHT22;63123;50.906;4.198;2023-06-22T11:55:50;20.90;72.20
74617;DHT22;63123;50.906;4.198;2023-06-22T11:58:16;20.90;72.30
74617;DHT22;63123;50.906;4.198;2023-06-22T12:00:42;20.90;72.30
74617;DHT22;63123;50.906;4.198;2023-06-22T12:03:08;20.90;72.30
74617;DHT22;63123;50.906;4.198;2023-06-22T12:05:34;20.90;72.30
74617;DHT22;63123;50.906;4.198;2023-06-22T12:08:00;20.90;72.30
74617;DHT22;63123;50.906;4.198;2023-06-22T12:10:26;20.90;72.40
74617;DHT22;63123;50.906;4.198;2023-06-22T12:12:54;20.90;72.30
74617;DHT22;63123;50.906;4.198;2023-06-22T12:15:19;20.90;72.30
74617;DHT22;63123;50.906;4.198;2023-06-22T12:17:45;20.80;72.30
74617;DHT22;63123;50.906;4.198;2023-06-22T12:20:11;20.90;72.40
74617;DHT22;63123;50.906;4.198;2023-06-22T12:22:36;20.90;72.40
74617;DHT22;63123;50.906;4.198;2023-06-22T12:25:03;20.90;72.40
74617;DHT22;63123;50.906;4.198;2023-06-22T12:27:29;20.90;72.50
74617;DHT22;63123;50.906;4.198;2023-06-22T12:29:56;20.90;72.60
74617;DHT22;63123;50.906;4.198;2023-06-22T12:32:22;20.90;72.60
74617;DHT22;63123;50.906;4.198;2023-06-22T12:34:47;20.90;73.10
74617;DHT22;63123;50.906;4.198;2023-06-22T12:37:13;20.90;72.60
74617;DHT22;63123;50.906;4.198;2023-06-22T12:39:41;20.90;72.60
74617;DHT22;63123;50.906;4.198;2023-06-22T12:42:07;20.90;72.60
74617;DHT22;63123;50.906;4.198;2023-06-22T12:44:34;20.90;72.60
74617;DHT22;63123;50.906;4.198;2023-06-22T12:47:00;20.80;72.60
74617;DHT22;63123;50.906;4.198;2023-06-22T12:49:26;20.90;72.70
74617;DHT22;63123;50.906;4.198;2023-06-22T12:51:51;20.80;72.60
74617;DHT22;63123;50.906;4.198;2023-06-22T12:54:17;20.90;72.60
74617;DHT22;63123;50.906;4.198;2023-06-22T12:56:43;20.90;72.60
74617;DHT22;63123;50.906;4.198;2023-06-22T12:59:10;20.90;72.60
74617;DHT22;63123;50.906;4.198;2023-06-22T13:01:36;20.90;72.70
74617;DHT22;63123;50.906;4.198;2023-06-22T13:04:02;20.90;72.60
74617;DHT22;63123;50.906;4.198;2023-06-22T13:06:28;20.90;72.60
74617;DHT22;63123;50.906;4.198;2023-06-22T13:08:54;20.90;72.70
74617;DHT22;63123;50.906;4.198;2023-06-22T13:11:19;20.90;72.70
74617;DHT22;63123;50.906;4.198;2023-06-22T13:13:45;20.90;72.70
74617;DHT22;63123;50.906;4.198;2023-06-22T13:16:11;20.90;72.70
74617;DHT22;63123;50.906;4.198;2023-06-22T13:18:37;20.90;72.80
74617;DHT22;63123;50.906;4.198;2023-06-22T13:21:03;20.90;72.70
74617;DHT22;63123;50.906;4.198;2023-06-22T13:23:29;20.90;72.70
74617;DHT22;63123;50.906;4.198;2023-06-22T13:25:55;20.90;72.80
74617;DHT22;63123;50.906;4.198;2023-06-22T13:28:20;20.90;72.80
74617;DHT22;63123;50.906;4.198;2023-06-22T13:30:46;20.90;72.80
74617;DHT22;63123;50.906;4.198;2023-06-22T13:33:13;20.90;72.80
74617;DHT22;63123;50.906;4.198;2023-06-22T13:35:39;20.90;73.40
74617;DHT22;63123;50.906;4.198;2023-06-22T13:38:05;20.90;72.80
74617;DHT22;63123;50.906;4.198;2023-06-22T13:40:30;20.90;72.80
74617;DHT22;63123;50.906;4.198;2023-06-22T13:42:56;20.90;72.80
74617;DHT22;63123;50.906;4.198;2023-06-22T13:45:22;20.90;72.80
74617;DHT22;63123;50.906;4.198;2023-06-22T13:47:48;20.80;72.70
74617;DHT22;63123;50.906;4.198;2023-06-22T13:50:13;20.90;72.80
74617;DHT22;63123;50.906;4.198;2023-06-22T13:52:39;20.80;72.80
74617;DHT22;63123;50.906;4.198;2023-06-22T13:55:05;20.90;72.80
74617;DHT22;63123;50.906;4.198;2023-06-22T13:57:33;20.90;72.90
74617;DHT22;63123;50.906;4.198;2023-06-22T13:59:59;20.90;72.80
74617;DHT22;63123;50.906;4.198;2023-06-22T14:02:26;20.90;72.90
74617;DHT22;63123;50.906;4.198;2023-06-22T14:04:53;20.90;72.90
74617;DHT22;63123;50.906;4.198;2023-06-22T14:07:19;20.90;72.90
74617;DHT22;63123;50.906;4.198;2023-06-22T14:09:46;20.90;72.90
74617;DHT22;63123;50.906;4.198;2023-06-22T14:12:12;20.90;72.90
74617;DHT22;63123;50.906;4.198;2023-06-22T14:14:37;20.90;72.90
74617;DHT22;63123;50.906;4.198;2023-06-22T14:17:04;20.90;73.00
74617;DHT22;63123;50.906;4.198;2023-06-22T14:19:29;20.90;72.90
74617;DHT22;63123;50.906;4.198;2023-06-22T14:21:55;20.90;72.90
74617;DHT22;63123;50.906;4.198;2023-06-22T14:24:22;20.90;73.00
74617;DHT22;63123;50.906;4.198;2023-06-22T14:26:48;20.90;73.00
74617;DHT22;63123;50.906;4.198;2023-06-22T14:29:13;20.90;73.00
74617;DHT22;63123;50.906;4.198;2023-06-22T14:31:39;20.90;73.00
74617;DHT22;63123;50.906;4.198;2023-06-22T14:34:05;20.90;73.10
74617;DHT22;63123;50.906;4.198;2023-06-22T14:36:31;20.90;73.00
74617;DHT22;63123;50.906;4.198;2023-06-22T14:38:57;20.90;73.00
74617;DHT22;63123;50.906;4.198;2023-06-22T14:41:22;20.90;73.10
74617;DHT22;63123;50.906;4.198;2023-06-22T14:43:49;20.90;73.60
74617;DHT22;63123;50.906;4.198;2023-06-22T14:46:17;20.90;73.10
74617;DHT22;63123;50.906;4.198;2023-06-22T14:48:42;20.90;73.10
74617;DHT22;63123;50.906;4.198;2023-06-22T14:51:09;20.90;73.10
74617;DHT22;63123;50.906;4.198;2023-06-22T14:53:35;20.90;73.10
74617;DHT22;63123;50.906;4.198;2023-06-22T14:56:01;20.90;73.10
74617;DHT22;63123;50.906;4.198;2023-06-22T14:58:33;20.90;73.10
74617;DHT22;63123;50.906;4.198;2023-06-22T15:01:07;20.90;73.10
74617;DHT22;63123;50.906;4.198;2023-06-22T15:03:34;20.90;73.10
74617;DHT22;63123;50.906;4.198;2023-06-22T15:06:02;20.90;73.20
74617;DHT22;63123;50.906;4.198;2023-06-22T15:08:28;20.90;73.20
74617;DHT22;63123;50.906;4.198;2023-06-22T15:10:53;20.90;73.20
74617;DHT22;63123;50.906;4.198;2023-06-22T15:13:19;20.90;73.20
74617;DHT22;63123;50.906;4.198;2023-06-22T15:15:46;20.90;73.20
74617;DHT22;63123;50.906;4.198;2023-06-22T15:18:14;20.90;73.20
74617;DHT22;63123;50.906;4.198;2023-06-22T15:20:39;20.90;73.20
74617;DHT22;63123;50.906;4.198;2023-06-22T15:23:06;20.90;73.30
74617;DHT22;63123;50.906;4.198;2023-06-22T15:25:33;20.90;73.30
74617;DHT22;63123;50.906;4.198;2023-06-22T15:27:59;20.90;73.40
74617;DHT22;63123;50.906;4.198;2023-06-22T15:30:25;20.90;73.30